createdAt,value
2018-08-06T00:03:41.697Z,4.80
2018-08-06T00:08:50.609Z,3.60
2018-08-06T00:13:54.718Z,4.00
2018-08-06T00:18:57.934Z,3.60
2018-08-06T00:24:01.431Z,4.00
2018-08-06T00:29:04.409Z,3.50
2018-08-06T00:34:07.552Z,3.63
2018-08-06T00:39:11.894Z,3.80
2018-08-06T00:44:14.897Z,4.40
2018-08-06T00:49:17.990Z,3.20
2018-08-06T00:54:21.263Z,3.40
2018-08-06T00:59:24.976Z,3.80
2018-08-06T01:04:28.006Z,3.73
2018-08-06T01:09:31.255Z,4.07
2018-08-06T01:14:34.352Z,3.03
2018-08-06T01:19:37.385Z,4.40
2018-08-06T01:24:40.577Z,3.80
2018-08-06T01:29:43.587Z,4.50
2018-08-06T01:34:46.763Z,4.90
2018-08-06T01:39:50.273Z,4.60
2018-08-06T01:44:53.739Z,5.00
2018-08-06T01:49:56.964Z,4.37
2018-08-06T01:55:00.711Z,4.07
2018-08-06T02:00:08.199Z,5.73
2018-08-06T02:05:11.559Z,4.90
2018-08-06T02:10:15.502Z,4.43
2018-08-06T02:15:18.662Z,4.80
2018-08-06T02:20:22.124Z,4.10
2018-08-06T02:25:26.045Z,4.50
2018-08-06T02:30:29.362Z,4.40
2018-08-06T02:35:32.668Z,5.43
2018-08-06T02:40:35.957Z,3.80
2018-08-06T02:45:39.102Z,4.33
2018-08-06T02:50:42.018Z,4.70
2018-08-06T02:55:45.737Z,3.23
2018-08-06T03:00:48.977Z,2.10
2018-08-06T03:05:52.280Z,2.60
2018-08-06T03:10:55.389Z,2.43
2018-08-06T03:15:58.573Z,3.33
2018-08-06T03:21:01.556Z,2.03
2018-08-06T03:26:05.234Z,2.80
2018-08-06T03:31:08.523Z,3.40
2018-08-06T03:36:11.540Z,2.90
2018-08-06T03:41:14.670Z,2.10
2018-08-06T03:46:18.212Z,2.40
2018-08-06T03:51:21.709Z,3.27
2018-08-06T03:56:25.069Z,2.47
2018-08-06T04:01:28.070Z,2.27
2018-08-06T04:06:31.025Z,2.87
2018-08-06T04:11:33.966Z,2.13
2018-08-06T04:16:43.048Z,2.27
2018-08-06T04:21:46.987Z,2.80
2018-08-06T04:26:50.656Z,2.80
2018-08-06T04:31:53.810Z,3.10
2018-08-06T04:36:57.016Z,3.13
2018-08-06T04:42:01.199Z,3.30
2018-08-06T04:47:04.698Z,2.50
2018-08-06T04:52:08.127Z,3.93
2018-08-06T04:57:11.247Z,4.23
2018-08-06T05:02:14.437Z,3.27
2018-08-06T05:07:17.400Z,3.17
2018-08-06T05:12:20.443Z,2.87
2018-08-06T05:17:23.599Z,4.90
2018-08-06T05:22:27.536Z,2.80
2018-08-06T05:27:30.910Z,3.10
2018-08-06T05:32:33.938Z,2.93
2018-08-06T05:37:37.665Z,3.60
2018-08-06T05:42:40.576Z,2.70
2018-08-06T05:47:43.525Z,2.70
2018-08-06T05:52:46.449Z,3.63
2018-08-06T05:57:50.631Z,2.73
2018-08-06T06:02:53.552Z,2.93
2018-08-06T06:07:56.533Z,3.43
2018-08-06T06:12:59.871Z,4.10
2018-08-06T06:18:02.997Z,3.27
2018-08-06T06:23:06.146Z,3.07
2018-08-06T06:28:09.729Z,4.00
2018-08-06T06:33:12.660Z,4.17
2018-08-06T06:38:15.589Z,4.70
2018-08-06T06:43:18.971Z,4.27
2018-08-06T06:48:21.976Z,4.20
2018-08-06T06:53:25.015Z,5.10
2018-08-06T06:58:28.234Z,4.80
2018-08-06T07:03:31.203Z,4.73
2018-08-06T07:08:35.602Z,4.00
2018-08-06T07:13:39.899Z,5.00
2018-08-06T07:18:43.347Z,4.40
2018-08-06T07:23:46.278Z,4.37
2018-08-06T07:28:49.308Z,5.20
2018-08-06T07:33:52.414Z,5.03
2018-08-06T07:38:55.331Z,4.73
2018-08-06T07:43:58.386Z,3.90
2018-08-06T07:49:01.317Z,4.37
2018-08-06T07:54:04.602Z,4.87
2018-08-06T07:59:07.564Z,5.70
2018-08-06T08:04:10.444Z,4.83
2018-08-06T08:09:19.223Z,4.40
2018-08-06T08:14:23.849Z,3.70
2018-08-06T08:19:26.895Z,4.00
2018-08-06T08:24:30.215Z,4.37
2018-08-06T08:29:33.342Z,3.10
2018-08-06T08:34:36.606Z,3.70
2018-08-06T08:39:39.547Z,4.00
2018-08-06T08:44:42.920Z,3.80
2018-08-06T08:49:45.925Z,3.40
2018-08-06T08:54:49.187Z,3.40
2018-08-06T08:59:52.299Z,3.50
2018-08-06T09:04:55.221Z,3.33
2018-08-06T09:09:58.121Z,3.33
2018-08-06T09:15:02.044Z,2.33
2018-08-06T09:20:06.392Z,3.20
2018-08-06T09:25:12.120Z,3.07
2018-08-06T09:30:18.562Z,2.67
2018-08-06T09:35:21.769Z,3.37
2018-08-06T09:40:25.010Z,3.20
2018-08-06T09:45:28.220Z,2.67
2018-08-06T09:50:31.537Z,2.50
2018-08-06T09:55:34.540Z,2.47
2018-08-06T10:00:45.197Z,2.27
2018-08-06T10:05:48.103Z,2.57
2018-08-06T10:10:51.292Z,2.20
2018-08-06T10:15:54.312Z,2.00
2018-08-06T10:20:57.254Z,2.57
2018-08-06T10:26:02.918Z,2.30
2018-08-06T10:31:07.524Z,2.20
2018-08-06T10:36:14.742Z,2.50
2018-08-06T10:41:18.688Z,2.60
2018-08-06T10:46:21.774Z,2.17
2018-08-06T10:51:24.760Z,2.20
2018-08-06T10:56:27.741Z,1.90
2018-08-06T11:01:30.648Z,2.20
2018-08-06T11:06:33.621Z,2.43
2018-08-06T11:11:36.544Z,2.27
2018-08-06T11:16:39.904Z,2.33
2018-08-06T11:21:42.824Z,2.97
2018-08-06T11:26:45.756Z,2.97
2018-08-06T11:31:49.662Z,2.50
2018-08-06T11:36:52.687Z,3.03
2018-08-06T11:41:55.554Z,3.57
2018-08-06T11:46:59.039Z,2.90
2018-08-06T11:52:03.700Z,2.50
2018-08-06T11:57:06.688Z,2.60
2018-08-06T12:02:13.881Z,2.60
2018-08-06T12:07:17.636Z,2.40
2018-08-06T12:12:21.871Z,3.20
2018-08-06T12:17:27.440Z,2.63
2018-08-06T12:22:44.632Z,2.30
2018-08-06T12:27:54.168Z,3.10
2018-08-06T12:33:02.853Z,3.80
2018-08-06T12:38:08.094Z,3.20
2018-08-06T12:43:12.712Z,2.80
2018-08-06T12:48:15.841Z,2.83
2018-08-06T12:53:19.011Z,3.07
2018-08-06T12:58:22.032Z,3.30
2018-08-06T13:03:25.076Z,3.70
2018-08-06T13:08:28.039Z,3.13
2018-08-06T13:13:35.234Z,2.90
2018-08-06T13:18:39.200Z,3.50
2018-08-06T13:23:42.561Z,2.93
2018-08-06T13:28:50.291Z,3.63
2018-08-06T13:33:55.939Z,2.97
2018-08-06T13:38:59.080Z,3.43
2018-08-06T13:44:02.012Z,3.63
2018-08-06T13:49:11.180Z,3.27
2018-08-06T13:54:15.756Z,2.80
2018-08-06T13:59:18.992Z,3.33
2018-08-06T14:04:22.132Z,3.30
2018-08-06T14:09:25.334Z,3.20
2018-08-06T14:14:28.224Z,3.87
2018-08-06T14:19:31.328Z,3.00
2018-08-06T14:24:34.207Z,3.47
2018-08-06T14:29:42.220Z,3.83
2018-08-06T14:34:46.105Z,3.27
2018-08-06T14:39:49.368Z,3.13
2018-08-06T14:44:59.582Z,3.40
2018-08-06T14:50:02.529Z,3.33
2018-08-06T14:55:05.494Z,3.67
2018-08-06T15:00:11.873Z,3.83
2018-08-06T15:05:15.795Z,3.70
2018-08-06T15:10:19.056Z,3.43
2018-08-06T15:15:22.010Z,4.37
2018-08-06T15:20:24.958Z,3.60
2018-08-06T15:25:27.921Z,3.00
2018-08-06T15:30:30.910Z,3.17
2018-08-06T15:35:34.377Z,4.00
2018-08-06T15:40:37.282Z,3.60
2018-08-06T15:45:40.156Z,3.53
2018-08-06T15:50:43.087Z,4.03
2018-08-06T15:55:46.024Z,3.53
2018-08-06T16:00:48.964Z,4.73
2018-08-06T16:05:52.622Z,4.13
2018-08-06T16:10:59.216Z,4.00
2018-08-06T16:16:03.245Z,4.40
2018-08-06T16:21:06.772Z,4.43
2018-08-06T16:26:09.695Z,4.20
2018-08-06T16:31:12.694Z,4.10
2018-08-06T16:36:17.588Z,3.80
2018-08-06T16:41:20.863Z,5.03
2018-08-06T16:46:24.592Z,3.60
2018-08-06T16:51:27.780Z,3.77
2018-08-06T16:56:30.689Z,4.80
2018-08-06T17:01:33.593Z,4.00
2018-08-06T17:06:37.144Z,4.40
2018-08-06T17:11:40.208Z,4.30
2018-08-06T17:16:43.356Z,4.33
2018-08-06T17:21:46.482Z,4.53
2018-08-06T17:26:49.481Z,4.10
2018-08-06T17:31:52.700Z,4.20
2018-08-06T17:36:57.568Z,4.67
2018-08-06T17:42:00.508Z,4.37
2018-08-06T17:47:03.548Z,5.47
2018-08-06T17:52:07.364Z,4.07
2018-08-06T17:57:11.183Z,3.53
2018-08-06T18:02:14.451Z,4.60
2018-08-06T18:07:17.531Z,3.97
2018-08-06T18:12:20.576Z,3.63
2018-08-06T18:17:23.468Z,4.47
2018-08-06T18:22:26.372Z,4.37
2018-08-06T18:27:29.402Z,4.20
2018-08-06T18:32:32.648Z,4.20
2018-08-06T18:37:35.843Z,4.13
2018-08-06T18:42:38.855Z,3.40
2018-08-06T18:47:42.654Z,3.70
2018-08-06T18:52:46.712Z,3.53
2018-08-06T18:57:49.690Z,3.93
2018-08-06T19:02:53.127Z,3.50
2018-08-06T19:07:56.714Z,3.50
2018-08-06T19:13:05.100Z,3.60
2018-08-06T19:18:13.613Z,3.30
2018-08-06T19:23:16.661Z,2.70
2018-08-06T19:28:19.601Z,3.93
2018-08-06T19:33:22.610Z,4.03
2018-08-06T19:38:26.357Z,4.30
2018-08-06T19:43:34.941Z,3.47
2018-08-06T19:48:37.985Z,4.00
2018-08-06T19:53:46.025Z,3.50
2018-08-06T19:58:49.244Z,4.50
2018-08-06T20:03:57.422Z,3.67
2018-08-06T20:09:01.476Z,4.20
2018-08-06T20:14:06.390Z,4.10
2018-08-06T20:19:10.030Z,3.43
2018-08-06T20:24:15.366Z,3.53
2018-08-06T20:29:19.237Z,4.10
2018-08-06T20:34:22.800Z,4.07
2018-08-06T20:39:26.308Z,4.43
2018-08-06T20:44:30.560Z,4.53
2018-08-06T20:49:35.018Z,4.70
2018-08-06T20:54:38.610Z,4.50
2018-08-06T20:59:42.376Z,4.33
2018-08-06T21:04:46.088Z,4.43
2018-08-06T21:09:49.922Z,4.27
2018-08-06T21:14:57.394Z,4.53
2018-08-06T21:20:01.261Z,4.43
2018-08-06T21:25:06.333Z,4.63
2018-08-06T21:30:13.329Z,4.17
2018-08-06T21:35:17.030Z,4.83
2018-08-06T21:40:22.148Z,5.07
2018-08-06T21:45:27.768Z,5.00
2018-08-06T21:50:31.083Z,4.60
2018-08-06T21:55:48.060Z,5.00
2018-08-06T22:01:13.506Z,5.53
2018-08-06T22:06:18.810Z,4.30
2018-08-06T22:11:25.407Z,5.40
2018-08-06T22:16:33.469Z,4.77
2018-08-06T22:21:44.569Z,4.60
2018-08-06T22:26:49.261Z,5.17
